Time;durP1;ratioP1;P1;durP2;ratioP2;P2;SDS_P1;SDS_P2;PMS_P1;PMS_P2;Temp;Humidity;BMP_temperature;BMP_pressure;BME280_temperature;BME280_humidity;BME280_pressure;Samples;Min_cycle;Max_cycle;Signal;HPM_P1;HPM_P2
2022/09/01 00:06:21;;;;;;;;;;;;;;;;;;;;;
2022/09/01 00:44:48;;;;;;;2.53;0.60;;;15.30;93.90;;;;;;5750448;24;20024;-84
2022/09/01 04:15:55;;;;;;;1.30;0.40;;;15.20;92.30;;;;;;6068208;23;20019;-82
2022/09/01 04:42:10;;;;;;;0.77;0.40;;;15.10;91.80;;;;;;6116273;23;20022;-81
2022/09/01 05:36:05;;;;;;;;;;;;;;;;;;;;;
2022/09/01 05:44:21;;;;;;;1.65;0.40;;;14.70;92.20;;;;;;5959465;24;20021;-83
2022/09/01 05:57:34;;;;;;;1.17;0.50;;;14.70;92.20;;;;;;5811142;24;20027;-83
2022/09/01 06:05:05;;;;;;;1.85;0.50;;;14.70;92.00;;;;;;6040569;23;20025;-80
2022/09/01 06:13:01;;;;;;;0.90;0.50;;;15.00;91.70;;;;;;6053276;23;20019;-82
2022/09/01 06:17:18;;;;;;;;;;;;;;;;;;;;;
2022/09/01 06:21:16;;;;;;;1.48;0.43;;;15.60;91.00;;;;;;6082182;23;20018;-81
2022/09/01 06:29:15;;;;;;;;;;;;;;;;;;;;;
2022/09/01 06:33:23;;;;;;;2.22;0.20;;;15.80;90.50;;;;;;6048991;23;20030;-82
2022/09/01 06:37:10;;;;;;;;;;;;;;;;;;;;;
2022/09/01 06:44:49;;;;;;;3.90;0.30;;;16.70;88.20;;;;;;6083740;23;20026;-81
2022/09/01 07:08:10;;;;;;;;;;;;;;;;;;;;;
2022/09/01 07:15:57;;;;;;;5.90;3.25;;;18.40;84.30;;;;;;6106333;23;19915;-82
2022/09/01 07:19:36;;;;;;;2.08;0.80;;;18.80;83.70;;;;;;6094114;23;20017;-80
2022/09/01 07:23:58;;;;;;;3.65;0.50;;;19.10;83.20;;;;;;6087389;23;20014;-79
2022/09/01 07:32:35;;;;;;;2.50;0.40;;;19.50;81.90;;;;;;6088030;23;20032;-80
2022/09/01 07:58:59;;;;;;;;;;;;;;;;;;;;;
2022/09/01 08:33:53;;;;;;;;;;;;;;;;;;;;;
2022/09/01 09:04:49;;;;;;;;;;;;;;;;;;;;;
2022/09/01 09:21:16;;;;;;;;;;;;;;;;;;;;;
2022/09/01 09:29:29;;;;;;;2.38;0.32;;;23.90;65.50;;;;;;5972927;23;20012;-80
2022/09/01 09:37:26;;;;;;;0.50;0.20;;;24.30;63.70;;;;;;5986082;23;20016;-81
2022/09/01 10:09:51;;;;;;;0.70;0.38;;;25.10;57.70;;;;;;6052161;23;20484;-78
2022/09/01 10:12:25;;;;;;;0.52;0.30;;;25.10;57.70;;;;;;6115781;23;20037;-80
2022/09/01 10:15:11;;;;;;;0.55;0.30;;;25.30;57.10;;;;;;6076708;23;19998;-78
2022/09/01 10:17:44;;;;;;;2.22;0.30;;;25.30;56.90;;;;;;6044976;23;20014;-78
2022/09/01 10:20:17;;;;;;;0.75;0.20;;;25.50;57.00;;;;;;6092588;23;20471;-80
2022/09/01 10:22:45;;;;;;;0.73;0.30;;;25.70;55.80;;;;;;6044424;23;20013;-78
2022/09/01 10:25:22;;;;;;;0.43;0.20;;;25.90;55.30;;;;;;6067770;23;20022;-78
2022/09/01 10:27:59;;;;;;;1.85;0.20;;;26.00;55.30;;;;;;6044708;23;20022;-77
2022/09/01 10:30:27;;;;;;;0.40;0.30;;;26.30;55.90;;;;;;6068407;23;20447;-78
2022/09/01 10:32:59;;;;;;;0.47;0.30;;;26.50;53.00;;;;;;6045627;23;20463;-79
2022/09/01 10:35:29;;;;;;;0.43;0.20;;;26.60;52.60;;;;;;6069674;23;20106;-79
2022/09/01 10:37:58;;;;;;;1.13;0.25;;;26.70;52.80;;;;;;6044796;23;20014;-79
2022/09/01 10:40:27;;;;;;;1.40;0.20;;;26.80;53.10;;;;;;6118306;23;20351;-80
2022/09/01 10:42:59;;;;;;;1.85;0.30;;;27.10;53.30;;;;;;6094585;23;20010;-80
2022/09/01 10:45:33;;;;;;;0.75;0.20;;;27.40;52.70;;;;;;6093835;23;20018;-78
2022/09/01 10:48:26;;;;;;;1.23;0.30;;;27.60;51.40;;;;;;6078203;23;20129;-78
2022/09/01 10:51:13;;;;;;;0.77;0.28;;;27.80;52.30;;;;;;6069430;23;20033;-78
2022/09/01 10:53:42;;;;;;;1.58;0.30;;;28.00;51.50;;;;;;6069107;23;20022;-79
2022/09/01 10:56:42;;;;;;;3.78;0.30;;;28.30;50.40;;;;;;6045893;23;20346;-80
2022/09/01 10:59:08;;;;;;;1.67;0.20;;;28.50;50.70;;;;;;6093002;23;20010;-78
2022/09/01 11:01:43;;;;;;;2.78;0.35;;;28.80;49.30;;;;;;6092220;23;20011;-77
2022/09/01 11:04:17;;;;;;;2.42;0.20;;;28.90;49.40;;;;;;6068137;23;20323;-78
2022/09/01 11:06:49;;;;;;;1.08;0.30;;;29.20;49.40;;;;;;6044447;23;20014;-78
2022/09/01 11:09:38;;;;;;;1.77;0.20;;;29.50;49.60;;;;;;6092142;23;20007;-79
2022/09/01 11:12:23;;;;;;;1.17;0.20;;;29.90;48.90;;;;;;6069517;23;20014;-79
2022/09/01 11:14:55;;;;;;;0.43;0.20;;;30.20;48.30;;;;;;6069034;23;20019;-77
2022/09/01 11:17:26;;;;;;;1.02;0.28;;;30.50;47.40;;;;;;6078454;23;20026;-78
2022/09/01 11:19:57;;;;;;;0.50;0.20;;;30.70;46.90;;;;;;6045531;23;20014;-79
2022/09/01 11:22:40;;;;;;;0.70;0.30;;;31.00;45.50;;;;;;6070065;23;20041;-80
2022/09/01 11:25:32;;;;;;;0.82;0.20;;;31.20;45.80;;;;;;6045640;23;20018;-79
2022/09/01 11:28:06;;;;;;;0.47;0.30;;;31.30;45.00;;;;;;6068707;23;20025;-77
2022/09/01 11:30:53;;;;;;;0.75;0.30;;;31.50;44.70;;;;;;6046364;23;20026;-79
2022/09/01 11:33:38;;;;;;;0.80;0.40;;;31.80;44.90;;;;;;6094137;23;20021;-79
2022/09/01 11:36:29;;;;;;;1.00;0.20;;;32.00;44.20;;;;;;6093721;23;20010;-81
2022/09/01 11:39:05;;;;;;;1.30;0.30;;;32.30;44.10;;;;;;6068270;23;20447;-79
2022/09/01 11:41:50;;;;;;;2.35;0.20;;;32.70;43.90;;;;;;6080280;23;20006;-79
2022/09/01 11:44:41;;;;;;;0.85;0.25;;;32.80;42.90;;;;;;6097346;23;20011;-82
2022/09/01 11:47:15;;;;;;;1.20;0.60;;;32.80;42.60;;;;;;6097057;23;20011;-80
2022/09/01 11:49:58;;;;;;;2.85;0.30;;;33.00;42.70;;;;;;6102381;23;20013;-79
2022/09/01 11:52:28;;;;;;;1.30;0.30;;;33.20;41.20;;;;;;6094742;23;20025;-80
2022/09/01 11:54:56;;;;;;;1.27;0.20;;;33.10;41.50;;;;;;6094941;23;20014;-80
2022/09/01 11:57:25;;;;;;;0.95;0.20;;;33.30;41.30;;;;;;6096304;23;20375;-80
2022/09/01 11:59:52;;;;;;;4.20;0.30;;;33.60;40.90;;;;;;6097764;23;20002;-81
2022/09/01 12:02:33;;;;;;;1.85;0.30;;;33.80;40.60;;;;;;6124357;23;20324;-81
2022/09/01 12:05:02;;;;;;;4.00;0.30;;;33.90;39.30;;;;;;6109473;23;20011;-81
2022/09/01 12:07:37;;;;;;;0.63;0.30;;;33.90;40.00;;;;;;6099410;23;20077;-80
2022/09/01 12:10:28;;;;;;;2.72;0.28;;;34.30;39.80;;;;;;6125896;23;20016;-79
2022/09/01 12:13:09;;;;;;;1.10;0.30;;;34.50;39.20;;;;;;6133793;23;20007;-81
2022/09/01 12:15:41;;;;;;;4.93;0.30;;;34.70;39.70;;;;;;6075505;23;20006;-81
2022/09/01 12:18:34;;;;;;;2.65;0.28;;;35.20;40.00;;;;;;6133631;23;20451;-82
2022/09/01 12:21:03;;;;;;;0.45;0.30;;;35.70;39.50;;;;;;6099433;23;20010;-80
2022/09/01 12:23:33;;;;;;;2.05;0.30;;;36.10;38.90;;;;;;6122860;23;20010;-80
2022/09/01 12:26:12;;;;;;;2.47;0.30;;;36.40;38.20;;;;;;6074706;23;20022;-80
2022/09/01 12:28:40;;;;;;;0.70;0.20;;;36.40;37.90;;;;;;6133111;23;20006;-80
2022/09/01 12:31:17;;;;;;;0.80;0.20;;;36.30;37.90;;;;;;6098706;23;20006;-80
2022/09/01 12:33:44;;;;;;;2.58;0.40;;;36.00;37.70;;;;;;6098177;23;20059;-81
2022/09/01 12:36:23;;;;;;;1.92;0.20;;;35.90;37.20;;;;;;6100473;23;20010;-80
2022/09/01 12:38:55;;;;;;;2.88;0.40;;;35.40;37.90;;;;;;6099651;23;20018;-80
2022/09/01 12:41:36;;;;;;;2.20;0.30;;;35.30;37.70;;;;;;6112044;23;20021;-81
2022/09/01 12:44:37;;;;;;;1.30;0.30;;;35.30;38.30;;;;;;6098644;23;20014;-81
2022/09/01 12:47:06;;;;;;;1.48;0.20;;;35.80;38.40;;;;;;6102203;23;20020;-81
2022/09/01 12:49:42;;;;;;;2.13;0.40;;;36.50;37.20;;;;;;6099646;23;20020;-81
2022/09/01 12:52:12;;;;;;;0.60;0.30;;;36.50;36.70;;;;;;6099984;23;20034;-82
2022/09/01 12:54:39;;;;;;;0.68;0.30;;;36.80;36.60;;;;;;6075058;23;20026;-80
2022/09/01 12:57:05;;;;;;;0.60;0.30;;;36.90;36.40;;;;;;6102599;23;20005;-81
2022/09/01 12:59:32;;;;;;;0.63;0.30;;;37.40;36.10;;;;;;6098972;23;20013;-81
2022/09/01 13:02:33;;;;;;;0.70;0.30;;;37.70;34.90;;;;;;6100308;23;20010;-81
2022/09/01 13:05:25;;;;;;;0.50;0.32;;;37.80;34.70;;;;;;6109901;23;20011;-81
2022/09/01 13:07:56;;;;;;;1.17;0.22;;;38.10;34.80;;;;;;6109009;23;20014;-80
2022/09/01 13:10:55;;;;;;;2.05;0.50;;;38.30;34.80;;;;;;6047589;23;20035;-80
2022/09/01 13:13:28;;;;;;;2.97;0.40;;;38.50;34.50;;;;;;6047020;23;20022;-78
2022/09/01 13:16:11;;;;;;;2.92;0.47;;;38.70;33.70;;;;;;6068649;23;20011;-80
2022/09/01 13:18:39;;;;;;;0.38;0.20;;;38.60;33.80;;;;;;6103933;23;20002;-80
2022/09/01 13:21:06;;;;;;;0.55;0.20;;;38.70;34.00;;;;;;6095252;23;20367;-82
2022/09/01 13:23:32;;;;;;;1.65;0.20;;;38.80;33.60;;;;;;6099356;23;20006;-81
2022/09/01 13:25:59;;;;;;;1.13;0.40;;;38.80;33.40;;;;;;6049572;23;20020;-80
2022/09/01 13:28:26;;;;;;;0.90;0.30;;;38.70;33.30;;;;;;6098012;23;20017;-81
2022/09/01 13:30:57;;;;;;;1.00;0.40;;;38.80;33.20;;;;;;6049961;23;20022;-80
2022/09/01 13:33:25;;;;;;;0.90;0.30;;;38.80;33.10;;;;;;6082796;23;20003;-81
2022/09/01 13:35:51;;;;;;;1.63;0.40;;;39.00;32.80;;;;;;6073050;23;20021;-80
2022/09/01 13:38:18;;;;;;;1.10;0.38;;;39.00;32.50;;;;;;6096327;23;20003;-81
2022/09/01 13:40:46;;;;;;;2.45;0.30;;;38.70;32.50;;;;;;6049290;23;20003;-80
2022/09/01 13:43:14;;;;;;;2.13;0.40;;;38.50;32.70;;;;;;6048992;23;20041;-81
2022/09/01 13:45:40;;;;;;;0.88;0.30;;;38.50;32.90;;;;;;6099301;23;20014;-81
2022/09/01 13:48:08;;;;;;;1.45;0.30;;;38.90;32.90;;;;;;6100396;23;20011;-81
2022/09/01 13:50:36;;;;;;;1.20;0.30;;;39.00;32.50;;;;;;6125336;23;20349;-79
2022/09/01 13:53:03;;;;;;;0.77;0.30;;;39.10;32.60;;;;;;6051798;23;20020;-82
2022/09/01 13:55:32;;;;;;;0.80;0.30;;;39.30;32.80;;;;;;6096643;23;20007;-81
2022/09/01 13:57:59;;;;;;;0.98;0.20;;;39.90;32.60;;;;;;6049878;23;20010;-82
2022/09/01 14:00:30;;;;;;;3.05;0.40;;;39.90;31.70;;;;;;6049749;23;20017;-81
2022/09/01 14:02:59;;;;;;;;;;;39.70;31.60;;;;;;6076342;23;20013;-81
2022/09/01 14:05:31;;;;;;;0.70;0.30;;;39.40;32.10;;;;;;6124459;23;19906;-80
2022/09/01 14:07:58;;;;;;;1.88;0.20;;;39.70;31.90;;;;;;6100309;23;20011;-81
2022/09/01 14:10:26;;;;;;;1.05;0.38;;;39.80;31.90;;;;;;6102967;23;20006;-81
2022/09/01 14:12:53;;;;;;;0.30;0.20;;;40.00;32.00;;;;;;6051881;23;20010;-81
2022/09/01 14:15:20;;;;;;;1.83;0.40;;;40.20;32.00;;;;;;6124060;23;20002;-80
2022/09/01 14:17:52;;;;;;;0.95;0.30;;;40.30;31.90;;;;;;6050157;23;20010;-82
2022/09/01 14:20:23;;;;;;;3.13;0.32;;;40.30;31.70;;;;;;6051496;23;20017;-80
2022/09/01 14:22:50;;;;;;;2.72;0.30;;;40.40;31.80;;;;;;6070042;23;20006;-80
2022/09/01 14:25:19;;;;;;;0.77;0.38;;;40.30;31.20;;;;;;6091477;23;20014;-80
2022/09/01 14:27:46;;;;;;;0.93;0.30;;;40.10;31.40;;;;;;6096061;23;20466;-79
2022/09/01 14:30:17;;;;;;;1.33;0.30;;;39.40;31.30;;;;;;6094913;23;20372;-80
2022/09/01 14:32:43;;;;;;;1.15;0.30;;;37.80;32.20;;;;;;6106874;23;20454;-80
2022/09/01 14:35:10;;;;;;;1.48;0.30;;;36.00;33.50;;;;;;6071302;23;20013;-78
2022/09/01 14:37:38;;;;;;;1.02;0.30;;;34.30;34.80;;;;;;6044853;23;20003;-79
2022/09/01 14:40:07;;;;;;;0.70;0.25;;;32.70;35.80;;;;;;6045636;23;20021;-81
2022/09/01 14:42:34;;;;;;;0.90;0.30;;;31.40;37.10;;;;;;6071868;23;20017;-79
2022/09/01 14:45:01;;;;;;;0.47;0.20;;;30.40;38.40;;;;;;6102127;23;20464;-78
2022/09/01 14:47:27;;;;;;;0.57;0.20;;;29.70;39.30;;;;;;6116395;23;20014;-79
2022/09/01 14:49:59;;;;;;;0.65;0.32;;;29.20;39.80;;;;;;6091384;23;20017;-80
2022/09/01 14:52:26;;;;;;;1.70;0.30;;;28.70;40.30;;;;;;6044243;23;20014;-79
2022/09/01 14:54:55;;;;;;;0.65;0.30;;;28.30;40.90;;;;;;6093679;23;20469;-79
2022/09/01 14:57:22;;;;;;;1.40;0.30;;;28.00;41.20;;;;;;6044649;23;20011;-78
2022/09/01 14:59:48;;;;;;;3.05;0.30;;;27.70;42.10;;;;;;6093547;23;20022;-79
2022/09/01 15:02:14;;;;;;;1.08;0.30;;;27.50;42.10;;;;;;6069554;23;20006;-79
2022/09/01 15:04:41;;;;;;;1.65;0.35;;;27.30;42.40;;;;;;6116330;23;20358;-78
2022/09/01 15:07:08;;;;;;;1.90;0.40;;;27.20;42.60;;;;;;6067580;23;20030;-79
2022/09/01 15:09:34;;;;;;;1.10;0.35;;;27.00;43.00;;;;;;6046019;23;20014;-79
2022/09/01 15:12:01;;;;;;;1.70;0.30;;;26.90;43.30;;;;;;6044178;23;20025;-79
2022/09/01 15:14:31;;;;;;;3.20;0.40;;;26.70;43.70;;;;;;6091404;23;20014;-77
2022/09/01 15:17:00;;;;;;;2.00;0.40;;;26.60;44.00;;;;;;6042820;23;20327;-79
2022/09/01 15:19:29;;;;;;;2.08;0.30;;;26.40;44.20;;;;;;6042778;23;20359;-78
2022/09/01 15:21:59;;;;;;;2.03;0.40;;;26.30;44.50;;;;;;6044748;23;20017;-79
2022/09/01 15:24:35;;;;;;;1.23;0.30;;;26.20;44.60;;;;;;6044672;23;20002;-78
2022/09/01 15:27:02;;;;;;;1.05;0.30;;;26.10;44.70;;;;;;6043590;23;20406;-77
2022/09/01 15:29:33;;;;;;;0.80;0.30;;;26.00;45.10;;;;;;6067380;23;20439;-78
2022/09/01 15:32:03;;;;;;;1.80;0.40;;;26.00;45.40;;;;;;6067478;23;20017;-79
2022/09/01 15:34:29;;;;;;;2.05;0.30;;;25.90;45.70;;;;;;6043925;23;20063;-78
2022/09/01 15:36:56;;;;;;;1.05;0.30;;;25.80;45.70;;;;;;6066638;23;20013;-79
2022/09/01 15:39:24;;;;;;;1.10;0.30;;;25.70;46.00;;;;;;6071311;23;20003;-79
2022/09/01 15:41:51;;;;;;;0.60;0.30;;;25.70;46.20;;;;;;6119457;23;20014;-79
2022/09/01 15:44:17;;;;;;;1.40;0.40;;;25.60;46.40;;;;;;6069147;23;20029;-77
2022/09/01 15:46:44;;;;;;;2.33;0.40;;;25.60;46.70;;;;;;6094615;23;20458;-80
2022/09/01 15:49:16;;;;;;;1.38;0.63;;;25.50;46.60;;;;;;6119970;23;20011;-80
2022/09/01 15:51:44;;;;;;;1.75;0.40;;;25.50;46.60;;;;;;6132307;23;20013;-81
2022/09/01 15:54:13;;;;;;;1.13;0.40;;;25.40;46.60;;;;;;6071970;23;20036;-80
2022/09/01 15:56:41;;;;;;;0.70;0.30;;;25.40;46.90;;;;;;6092583;23;20013;-79
2022/09/01 15:59:11;;;;;;;1.52;0.30;;;25.40;46.80;;;;;;6048303;23;20021;-81
2022/09/01 16:01:42;;;;;;;3.03;1.35;;;25.40;46.90;;;;;;6072948;23;20545;-81
2022/09/01 16:04:11;;;;;;;2.40;0.90;;;25.40;47.70;;;;;;6083778;23;20006;-81
2022/09/01 16:06:38;;;;;;;4.03;0.70;;;25.30;46.90;;;;;;6073589;23;20007;-79
2022/09/01 16:09:08;;;;;;;2.97;0.60;;;25.20;47.10;;;;;;6120244;23;20014;-79
2022/09/01 16:42:46;;;;;;;;;;;;;;;;;;;;;
2022/09/01 17:15:09;;;;;;;0.82;0.30;;;23.90;49.30;;;;;;6072508;23;20533;-83
2022/09/01 17:47:48;;;;;;;1.95;0.40;;;23.30;50.90;;;;;;6083247;23;20083;-81
2022/09/01 18:37:42;;;;;;;;;;;;;;;;;;;;;
2022/09/01 19:08:18;;;;;;;0.80;0.30;;;20.80;55.50;;;;;;6077745;23;20477;-84
2022/09/01 19:16:12;;;;;;;;;;;;;;;;;;;;;
2022/09/01 21:06:37;;;;;;;;;;;;;;;;;;;;;
2022/09/01 22:17:02;;;;;;;0.52;0.22;;;18.50;61.40;;;;;;6092236;23;20026;-79
2022/09/01 22:19:33;;;;;;;1.73;0.38;;;18.50;61.50;;;;;;6069303;23;20003;-79
2022/09/01 22:21:59;;;;;;;3.17;0.40;;;18.50;61.60;;;;;;6047483;23;20002;-79
2022/09/01 22:24:26;;;;;;;0.93;0.20;;;18.50;61.80;;;;;;6045960;23;20443;-79
2022/09/01 22:26:53;;;;;;;0.85;0.30;;;18.40;61.70;;;;;;6088642;23;20025;-79
2022/09/01 22:29:19;;;;;;;1.40;0.20;;;18.40;61.80;;;;;;6065333;23;20018;-80
2022/09/01 22:31:48;;;;;;;1.60;0.30;;;18.40;62.00;;;;;;6043934;23;20014;-79
2022/09/01 22:34:15;;;;;;;3.17;0.40;;;18.30;62.00;;;;;;6066672;23;20015;-79
2022/09/01 22:36:45;;;;;;;0.85;0.30;;;18.30;62.10;;;;;;6067596;23;20335;-79
2022/09/01 22:39:19;;;;;;;2.72;0.20;;;18.30;62.30;;;;;;5996180;23;20014;-80
2022/09/01 22:41:48;;;;;;;1.38;0.47;;;18.20;62.40;;;;;;6043499;23;20427;-80
2022/09/01 22:44:17;;;;;;;3.50;0.30;;;18.20;62.60;;;;;;6091287;23;20368;-80
2022/09/01 22:46:51;;;;;;;1.15;0.30;;;18.10;62.50;;;;;;6066633;23;20010;-80
2022/09/01 22:49:17;;;;;;;0.88;0.30;;;18.10;62.70;;;;;;6074545;23;20015;-80
2022/09/01 22:51:44;;;;;;;2.67;0.32;;;18.10;62.70;;;;;;6028963;23;20354;-80
2022/09/01 22:54:10;;;;;;;1.75;0.55;;;18.10;62.80;;;;;;6072337;23;20007;-80
2022/09/01 22:56:38;;;;;;;2.20;0.30;;;18.10;62.80;;;;;;6046505;23;20011;-80
2022/09/01 22:59:08;;;;;;;2.95;0.20;;;18.10;62.90;;;;;;6070199;23;20003;-80
2022/09/01 23:01:37;;;;;;;1.38;0.30;;;18.00;62.90;;;;;;6025530;23;20120;-80
2022/09/01 23:04:06;;;;;;;3.55;0.30;;;18.00;63.00;;;;;;6050193;23;20006;-80
2022/09/01 23:06:34;;;;;;;1.52;0.30;;;18.00;63.00;;;;;;6048634;23;20017;-80
2022/09/01 23:09:01;;;;;;;2.20;0.30;;;18.00;63.00;;;;;;6072159;23;20011;-80
2022/09/01 23:11:28;;;;;;;1.15;0.30;;;18.00;63.10;;;;;;6074350;23;20441;-80
2022/09/01 23:13:54;;;;;;;0.20;0.20;;;18.00;63.10;;;;;;6048628;23;20017;-80
2022/09/01 23:16:24;;;;;;;1.95;0.20;;;18.00;63.10;;;;;;6063047;23;20019;-80
2022/09/01 23:18:52;;;;;;;4.40;0.30;;;17.90;63.20;;;;;;6024197;23;20021;-80
2022/09/01 23:21:23;;;;;;;1.00;0.20;;;17.90;63.30;;;;;;6070598;23;20009;-79
2022/09/01 23:23:49;;;;;;;1.08;0.25;;;17.90;63.40;;;;;;6072109;23;20015;-80
2022/09/01 23:26:18;;;;;;;2.30;0.20;;;17.80;63.40;;;;;;6070427;23;20025;-79
2022/09/01 23:28:48;;;;;;;0.95;0.30;;;17.80;63.50;;;;;;6045530;23;20324;-79
2022/09/01 23:31:22;;;;;;;1.90;0.20;;;17.80;63.50;;;;;;6067744;23;20014;-79
2022/09/01 23:33:48;;;;;;;0.40;0.20;;;17.80;63.60;;;;;;6103340;23;20011;-79
2022/09/01 23:36:19;;;;;;;1.88;0.55;;;17.80;63.80;;;;;;6092855;23;20010;-79
2022/09/01 23:38:47;;;;;;;0.82;0.20;;;17.70;63.70;;;;;;6080738;23;20007;-81
2022/09/01 23:41:23;;;;;;;1.05;0.30;;;17.70;63.80;;;;;;6071158;23;20003;-80
2022/09/01 23:43:50;;;;;;;1.48;0.25;;;17.70;63.90;;;;;;6045976;23;20057;-79
2022/09/01 23:46:25;;;;;;;0.50;0.20;;;17.60;63.90;;;;;;6068855;23;20340;-80
2022/09/01 23:48:52;;;;;;;1.75;0.20;;;17.60;64.10;;;;;;6056612;23;20526;-79
2022/09/01 23:51:19;;;;;;;0.98;0.20;;;17.60;64.20;;;;;;6094070;23;20013;-80
2022/09/01 23:53:47;;;;;;;0.60;0.20;;;17.50;64.30;;;;;;6044907;23;20015;-79
2022/09/01 23:56:16;;;;;;;1.60;0.30;;;17.50;64.40;;;;;;6067220;23;20003;-79
2022/09/01 23:58:43;;;;;;;1.40;0.30;;;17.50;64.40;;;;;;6043258;23;20326;-80
